Weather Data

Pearl Creek Farm: 8878 N Farm Road 75, Walnut Grove MO 65770

<== Previous Day (Sunday 23 Nov 2014) | Next Day (Tuesday 25 Nov 2014) ==>

Summary Precipitation Data For Monday 24 November 2014

ElementValueUnits
Precipitation0.85"
NotesSteady rain started after dark.
SourcePearl Creek Farm

Summary Temperature Data For Monday 24 November 2014

ElementValueUnits
High Temperature48 oF
Low Temperature31 oF
Average Temperature40 oF
High Humidity95 %
Low Humidity61 %
Average Humidity81 %
SourcePearl Creek Farm

Detail Temperature Data For Monday 24 November 2014

Date / TimeTemp (F)RH (%)Dew Pt (F)Report Date / TimeSource
2014-11-24 00:00:00 41 94 39.3 2015-01-01 13:17:33 Pearl Creek Farm
2014-11-24 00:30:00 40 94 38.3 2015-01-01 13:17:33 Pearl Creek Farm
2014-11-24 01:00:00 41 95 39.5 2015-01-01 13:17:33 Pearl Creek Farm
2014-11-24 01:30:00 41 95 39.5 2015-01-01 13:17:33 Pearl Creek Farm
2014-11-24 02:00:00 41 94 39.4 2015-01-01 13:17:33 Pearl Creek Farm
2014-11-24 02:30:00 40 94 38.3 2015-01-01 13:17:33 Pearl Creek Farm
2014-11-24 03:00:00 40 93 38.0 2015-01-01 13:17:33 Pearl Creek Farm
2014-11-24 03:30:00 39 92 36.7 2015-01-01 13:17:33 Pearl Creek Farm
2014-11-24 04:00:00 38 91 35.5 2015-01-01 13:17:33 Pearl Creek Farm
2014-11-24 04:30:00 37 89 34.1 2015-01-01 13:17:33 Pearl Creek Farm
2014-11-24 05:00:00 36 89 32.9 2015-01-01 13:17:33 Pearl Creek Farm
2014-11-24 05:30:00 36 90 33.2 2015-01-01 13:17:33 Pearl Creek Farm
2014-11-24 06:00:00 35 91 32.5 2015-01-01 13:17:33 Pearl Creek Farm
2014-11-24 06:30:00 35 90 32.2 2015-01-01 13:17:33 Pearl Creek Farm
2014-11-24 07:00:00 35 89 32.1 2015-01-01 13:17:33 Pearl Creek Farm
2014-11-24 07:30:00 35 90 32.4 2015-01-01 13:17:33 Pearl Creek Farm
2014-11-24 08:00:00 35 91 32.5 2015-01-01 13:17:33 Pearl Creek Farm
2014-11-24 08:30:00 37 89 34.1 2015-01-01 13:17:33 Pearl Creek Farm
2014-11-24 09:00:00 38 87 34.3 2015-01-01 13:17:33 Pearl Creek Farm
2014-11-24 09:30:00 39 85 34.7 2015-01-01 13:17:33 Pearl Creek Farm
2014-11-24 10:00:00 40 83 35.1 2015-01-01 13:17:33 Pearl Creek Farm
2014-11-24 10:30:00 41 84 36.4 2015-01-01 13:17:33 Pearl Creek Farm
2014-11-24 11:00:00 43 79 37.0 2015-01-01 13:17:33 Pearl Creek Farm
2014-11-24 11:30:00 44 78 37.4 2015-01-01 13:17:33 Pearl Creek Farm
2014-11-24 12:00:00 45 74 37.1 2015-01-01 13:17:33 Pearl Creek Farm
2014-11-24 12:30:00 46 70 36.8 2015-01-01 13:17:33 Pearl Creek Farm
2014-11-24 13:00:00 46 68 35.9 2015-01-01 13:17:33 Pearl Creek Farm
2014-11-24 13:30:00 46 71 37.0 2015-01-01 13:17:33 Pearl Creek Farm
2014-11-24 14:00:00 47 68 36.8 2015-01-01 13:17:33 Pearl Creek Farm
2014-11-24 14:30:00 48 63 36.0 2015-01-01 13:17:33 Pearl Creek Farm
2014-11-24 15:00:00 47 65 35.9 2015-01-01 13:17:33 Pearl Creek Farm
2014-11-24 15:30:00 48 61 35.2 2015-01-01 13:17:33 Pearl Creek Farm
2014-11-24 16:00:00 48 61 35.2 2015-01-01 13:17:33 Pearl Creek Farm
2014-11-24 16:30:00 46 61 33.1 2015-01-01 13:17:33 Pearl Creek Farm
2014-11-24 17:00:00 45 62 32.8 2015-01-01 13:17:33 Pearl Creek Farm
2014-11-24 17:30:00 44 66 33.2 2015-01-01 13:17:33 Pearl Creek Farm
2014-11-24 18:00:00 42 69 32.6 2015-01-01 13:17:33 Pearl Creek Farm
2014-11-24 18:30:00 41 72 32.5 2015-01-01 13:17:33 Pearl Creek Farm
2014-11-24 19:00:00 40 72 31.7 2015-01-01 13:17:33 Pearl Creek Farm
2014-11-24 19:30:00 39 78 32.6 2015-01-01 13:17:33 Pearl Creek Farm
2014-11-24 20:00:00 37 77 30.3 2015-01-01 13:17:33 Pearl Creek Farm
2014-11-24 20:30:00 36 79 30.0 2015-01-01 13:17:33 Pearl Creek Farm
2014-11-24 21:00:00 33 80 27.5 2015-01-01 13:17:33 Pearl Creek Farm
2014-11-24 21:30:00 33 84 28.7 2015-01-01 13:17:33 Pearl Creek Farm
2014-11-24 22:00:00 32 83 27.3 2015-01-01 13:17:33 Pearl Creek Farm
2014-11-24 22:30:00 31 84 26.6 2015-01-01 13:17:33 Pearl Creek Farm
2014-11-24 23:00:00 31 83 26.5 2015-01-01 13:17:33 Pearl Creek Farm
2014-11-24 23:30:00 31 84 26.6 2015-01-01 13:17:33 Pearl Creek Farm

A total of 48 rows are displayed.